Flight Track Log - Related Links

Times and Time Zones

All times are in EDT time to prevent confusion due to time zone crossing. See the ASA3482 flight status page for this flight to view local times or setup timezone preferences in your user account.

Time Position Orientation Groundspeed Altitude Reporting Facility
EDT Latitude Longitude Course Direction KTS MPH feet Rate Location/Type
Sun 02:15:23 PM 47.4314 -122.3125 182° South 157 181 1,300  Level Seattle Center
Sun 02:15:52 PM 47.4106 -122.3133 182° South 162 186 2,000 2,067 Climbing Seattle Center
Sun 02:16:53 PM 47.3419 -122.3139 180° South 232 267 4,400 2,656 Climbing Seattle Center
Sun 02:17:54 PM 47.2719 -122.3108 178° South 251 289 7,400 3,098 Climbing Seattle Center
Sun 02:18:55 PM 47.2036 -122.2828 164° South 267 307 10,700 2,164 Climbing Seattle Center
Sun 02:19:56 PM 47.1283 -122.2239 152° Southeast 312 359 11,800 2,115 Climbing Seattle Center
Sun 02:20:57 PM 47.0456 -122.1814 161° South 313 360 15,000 2,557 Climbing Seattle Center
Sun 02:21:58 PM 46.9586 -122.1406 162° South 309 356 17,000 1,377 Climbing Seattle Center
Sun 02:22:59 PM 46.8736 -122.1194 170° South 310 357 17,800 1,033 Climbing Seattle Center
Sun 02:24:00 PM 46.8006 -122.1419 192° South 316 364 19,100 1,525 Climbing Seattle Center
Sun 02:25:01 PM 46.6917 -122.1692 190° South 329 379 20,900 1,672 Climbing Seattle Center
Sun 02:26:02 PM 46.5981 -122.1947 191° South 341 392 22,500 1,525 Climbing Seattle Center
Sun 02:27:03 PM 46.5019 -122.2186 190° South 350 403 24,000 1,426 Climbing Seattle Center
Sun 02:28:04 PM 46.4039 -122.2458 191° South 360 414 25,400 1,279 Climbing Seattle Center
Sun 02:29:05 PM 46.3039 -122.2742 191° South 370 426 26,600 1,131 Climbing Seattle Center
Sun 02:30:06 PM 46.1878 -122.2494 172° South 396 456 27,700 984 Climbing Seattle Center
Sun 02:31:07 PM 46.0767 -122.2256 172° South 403 464 28,600 1,033 Climbing Seattle Center
Sun 02:32:08 PM 45.9647 -122.2000 171° South 406 467 29,800 1,328 Climbing Seattle Center
Sun 02:33:09 PM 45.8542 -122.1764 172° South 403 464 31,300 1,230 Climbing Seattle Center
Sun 02:34:10 PM 45.7453 -122.1522 171° South 399 459 32,300 1,033 Climbing Seattle Center
Sun 02:35:11 PM 45.6342 -122.1272 171° South 404 465 33,400 1,073 Climbing Seattle Center
Sun 02:36:13 PM 45.5242 -122.1036 171° South 401 461 34,500 878 Climbing Seattle Center
Sun 02:37:14 PM 45.4144 -122.0803 172° South 399 459 35,200 934 Climbing Seattle Center
Sun 02:38:15 PM 45.3031 -122.0558 171° South 404 465 36,400 934 Climbing Seattle Center
Sun 02:39:16 PM 45.1953 -122.0317 171° South 396 456 37,100 590 Climbing Seattle Center
Sun 02:40:17 PM 45.0839 -122.0078 171° South 405 466 37,600 590 Climbing Seattle Center
Sun 02:41:18 PM 44.9528 -121.9800 171° South 396 456 38,300 590 Climbing Seattle Center
Sun 02:42:19 PM 44.8561 -121.9594 171° South 395 455 38,800 344 Climbing Seattle Center
Sun 02:43:20 PM 44.7478 -121.9361 171° South 392 451 39,000 98 Climbing Seattle Center
Sun 02:44:21 PM 44.6364 -121.9128 172° South 400 460 39,000  Level Seattle Center
Sun 02:45:22 PM 44.5200 -121.8900 172° South 408 470 39,000  Level Seattle Center
Sun 02:46:23 PM 44.4019 -121.8647 171° South 423 487 39,000  Level Seattle Center
Sun 02:47:24 PM 44.2861 -121.8406 172° South 423 487 39,000  Level Seattle Center
Sun 02:48:25 PM 44.1481 -121.8119 172° South 421 484 39,000  Level Seattle Center
Sun 02:49:26 PM 44.0319 -121.7875 171° South 422 486 39,000  Level Seattle Center
Sun 02:50:27 PM 43.9178 -121.7642 172° South 419 482 39,000  Level Seattle Center
Sun 02:51:28 PM 43.8083 -121.7428 172° South 423 487 39,000  Level Seattle Center
Sun 02:52:29 PM 43.6919 -121.7192 172° South 422 486 39,000  Level Seattle Center
Sun 02:53:30 PM 43.5764 -121.6956 172° South 420 483 39,000  Level Seattle Center
Sun 02:54:31 PM 43.4597 -121.6722 172° South 422 486 39,000  Level Seattle Center
Sun 02:55:32 PM 43.3439 -121.6483 171° South 420 483 39,000  Level Seattle Center
Sun 02:56:33 PM 43.2272 -121.6250 172° South 422 486 39,000  Level Seattle Center
Sun 02:57:34 PM 43.0858 -121.5953 171° South 426 490 39,000  Level Seattle Center
Sun 02:58:35 PM 42.9669 -121.5739 173° South 429 494 39,000  Level Seattle Center
Sun 02:59:36 PM 42.8486 -121.5508 172° South 430 495 39,000  Level Seattle Center
Sun 03:00:37 PM 42.7292 -121.5267 172° South 432 497 39,000  Level Seattle Center
Sun 03:01:38 PM 42.6094 -121.5036 172° South 433 498 39,000  Level Seattle Center
Sun 03:02:39 PM 42.4789 -121.4792 172° South 436 502 39,000  Level Seattle Center
Sun 03:03:41 PM 42.3678 -121.4564 171° South 434 499 39,000  Level Seattle Center
Sun 03:04:42 PM 42.2472 -121.4319 171° South 434 499 39,000  Level Seattle Center
Sun 03:05:43 PM 42.1269 -121.4083 172° South 434 499 39,000  Level Seattle Center
Sun 03:06:44 PM 42.0061 -121.3853 172° South 436 502 39,000  Level Seattle Center
Sun 03:07:45 PM 41.8842 -121.3622 172° South 438 504 39,000  Level Seattle Center
Sun 03:08:46 PM 41.7639 -121.3386 172° South 435 501 39,000  Level Seattle Center
Sun 03:09:47 PM 41.6425 -121.3156 172° South 438 504 39,000  Level Seattle Center
Sun 03:10:48 PM 41.5208 -121.2919 172° South 439 505 39,000  Level Seattle Center
Sun 03:11:49 PM 41.4000 -121.2694 172° South 438 504 39,000  Level Seattle Center
Sun 03:12:50 PM 41.2803 -121.2472 172° South 435 501 39,000  Level Seattle Center
Sun 03:13:51 PM 41.1600 -121.2236 172° South 435 501 39,000  Level Seattle Center
Sun 03:14:52 PM 41.0394 -121.2014 172° South 436 502 39,000  Level Seattle Center
Sun 03:15:53 PM 40.8939 -121.1744 172° South 439 505 39,000  Level Seattle Center
Sun 03:16:54 PM 40.7731 -121.1514 172° South 440 506 39,000  Level Seattle Center
Sun 03:17:55 PM 40.6481 -121.1292 172° South 442 509 39,000  Level Seattle Center
Sun 03:18:50 PM 40.5483 -121.1081 171° South 442 509 39,000  Level Oakland Center
Sun 03:19:51 PM 40.4258 -121.0878 173° South 443 510 39,000  Level Oakland Center
Sun 03:20:53 PM 40.3028 -121.0631 171° South 447 514 39,000  Level Oakland Center
Sun 03:21:54 PM 40.1789 -121.0425 173° South 448 516 39,000  Level Oakland Center
Sun 03:22:55 PM 40.0303 -121.0142 172° South 449 517 39,000  Level Oakland Center
Sun 03:23:57 PM 39.9050 -120.9919 172° South 450 518 39,000  Level Oakland Center
Sun 03:24:58 PM 39.7806 -120.9694 172° South 450 518 39,000  Level Oakland Center
Sun 03:26:00 PM 39.6569 -120.9475 172° South 449 517 39,000  Level Oakland Center
Sun 03:27:01 PM 39.5319 -120.9258 172° South 451 519 39,000  Level Oakland Center
Sun 03:28:02 PM 39.4061 -120.9025 172° South 455 524 39,000  Level Oakland Center
Sun 03:29:04 PM 39.2817 -120.8808 172° South 451 519 39,000  Level Oakland Center
Sun 03:30:05 PM 39.1561 -120.8589 172° South 454 522 39,000  Level Oakland Center
Sun 03:31:07 PM 39.0306 -120.8364 172° South 454 522 39,000  Level Oakland Center
Sun 03:32:08 PM 38.9050 -120.8142 172° South 453 521 39,000  Level Oakland Center
Sun 03:33:10 PM 38.7778 -120.7917 172° South 457 526 39,000  Level Oakland Center
Sun 03:34:11 PM 38.6511 -120.7697 172° South 455 524 39,000  Level Oakland Center
Sun 03:35:13 PM 38.5253 -120.7475 172° South 453 521 39,000  Level Oakland Center
Sun 03:36:14 PM 38.3731 -120.7214 172° South 454 522 39,000  Level Oakland Center
Sun 03:37:15 PM 38.2472 -120.6994 172° South 453 521 39,000  Level Oakland Center
Sun 03:38:17 PM 38.1211 -120.6797 173° South 453 521 39,000  Level Oakland Center
Sun 03:39:18 PM 37.9944 -120.6575 172° South 455 524 39,000  Level Oakland Center
Sun 03:40:20 PM 37.8689 -120.6356 172° South 454 522 39,000  Level Oakland Center
Sun 03:41:21 PM 37.7422 -120.6150 173° South 455 524 39,000  Level Oakland Center
Sun 03:42:22 PM 37.6161 -120.5917 172° South 456 525 39,000  Level Oakland Center
Sun 03:43:24 PM 37.4889 -120.5717 173° South 457 526 39,000  Level Oakland Center
Sun 03:44:25 PM 37.3617 -120.5497 172° South 460 529 39,000  Level Oakland Center
Sun 03:45:26 PM 37.2314 -120.5314 174° South 463 533 39,000 -585 Level Oakland Center
Sun 03:46:28 PM 37.0767 -120.5042 172° South 462 532 37,800 -1,317 Descending Oakland Center
Sun 03:47:29 PM 36.9486 -120.4828 172° South 460 529 36,300 -1,366 Descending Oakland Center
Sun 03:48:31 PM 36.8200 -120.4597 172° South 464 534 35,000 -634 Descending Oakland Center
Sun 03:49:32 PM 36.6914 -120.4375 172° South 463 533 35,000  Level Oakland Center
Sun 03:50:33 PM 36.5631 -120.4156 172° South 458 527 35,000 -98 Level Oakland Center
Sun 03:51:35 PM 36.4325 -120.3933 172° South 460 529 34,800 -585 Descending Oakland Center
Sun 03:52:36 PM 36.3006 -120.3711 172° South 471 542 33,800 -984 Descending Oakland Center
Sun 03:53:37 PM 36.1717 -120.3514 173° South 468 539 32,800 -976 Descending Oakland Center
Sun 03:54:39 PM 36.0444 -120.3311 173° South 463 533 31,800 -878 Descending Oakland Center
Sun 03:55:40 PM 35.9167 -120.3142 174° South 458 527 31,000 -585 Descending Oakland Center
Sun 03:56:42 PM 35.7617 -120.2881 172° South 467 537 30,600 -927 Descending Oakland Center
Sun 03:57:43 PM 35.6322 -120.2667 172° South 468 539 29,100 -1,475 Descending Oakland Center
Sun 03:58:44 PM 35.5014 -120.2450 172° South 468 539 27,600 -1,463 Descending Oakland Center
Sun 03:59:46 PM 35.3764 -120.2256 173° South 475 547 26,100 -1,463 Descending Oakland Center
Sun 04:00:47 PM 35.2486 -120.2044 172° South 460 529 24,600 -1,623 Descending Oakland Center
Sun 04:01:48 PM 35.1161 -120.1836 173° South 439 505 22,800 -2,049 Descending Oakland Center
Sun 04:02:50 PM 34.9967 -120.1656 173° South 433 498 20,400 -2,390 Descending Oakland Center
Sun 04:03:51 PM 34.8800 -120.1467 172° South 426 490 17,900 -2,496 Descending Oakland Center
Sun 04:04:55 PM 34.7544 -120.1267 173° South 397 457 15,200 -2,382 Descending Los Angeles Center
Sun 04:06:02 PM 34.6539 -120.1106 172° South 381 438 12,700 -2,073 Descending Los Angeles Center
Sun 04:06:45 PM 34.5719 -120.1014 175° South 332 382 11,400 -1,548 Descending Los Angeles Center
Sun 04:07:04 PM 34.5539 -120.1031 184° South 333 383 11,100 -1,418 Descending Los Angeles Center
Sun 04:07:40 PM 34.4961 -120.1103 186° South 304 350 10,100 -1,548 Descending Los Angeles Center
Sun 04:08:06 PM 34.4711 -120.1128 185° South 301 346 9,500 -1,701 Descending Los Angeles Center
Sun 04:08:47 PM 34.4111 -120.0958 167° South 281 323 8,200 -1,520 Descending Los Angeles Center
Sun 04:09:21 PM 34.3850 -120.0794 153° Southeast 278 320 7,600 -1,444 Descending Los Angeles Center
Sun 04:09:41 PM 34.3622 -120.0411 126° Southeast 266 306 6,900 -1,355 Descending Los Angeles Center
Sun 04:10:23 PM 34.3464 -119.9986 114° Southeast 269 310 6,200 -885 Descending Los Angeles Center
Sun 04:10:42 PM 34.3350 -119.9664 113° Southeast 256 295 6,000 -484 Descending Los Angeles Center
Sun 04:11:25 PM 34.3303 -119.9222 97° East 247 284 5,700 -1,086 Descending Los Angeles Center
Sun 04:12:38 PM 34.3411 -119.8186 83° East 233 268 3,900 -1,522 Descending Los Angeles Center
Sun 04:13:39 PM 34.3506 -119.7453 81° East 213 245 2,300 -1,274 Descending Los Angeles Center
Sun 04:14:31 PM 34.3858 -119.7478 357° North 205 236 1,500 -526 Descending Los Angeles Center
Sun 04:15:33 PM 34.4128 -119.7708 325° Northwest 175 201 1,300 -581 Descending Los Angeles Center
Sun 04:16:35 PM 34.4275 -119.8194 290° West 136 157 300 -484 Descending Los Angeles Center
Sun 04:17:37 PM 34.4389 -119.8544 292° West 141 162 300  Level Los Angeles Center
Sun 04:19:00 PM 34.4262 -119.8415 56° Northeast  Level Estimated

Login

Don't have an account? Register now (free) for customized features, flight alerts, and more!